KHIIKAVQ

Guest
Details From KHII - LAKE HAVASU CITY
To KAVQ - MARANA RGNL
Flight Number -
Tags generated
Created
Modified
Stats Distance 204 nm / 378 km
Max Altitude 21,900 ft / 6,675 m
Waypoints 3
Social Downloads 0
Likes 0
Share VATSIM

Download

Looking for another format? Having issues loading an existing format? Contact us
Advertisement - Login to hide

Notes

Basic altitude profile: - Ascent Rate: 700ft/min - Ascent Speed: 100kts - Cruise Altitude: 10000ft - Cruise Speed: 140kts - Descent Rate: 1000ft/min - Descent Speed: 100kts Options: - Use NATs: yes - Use PACOTS: yes - Use low airways: yes - Use high airways: no

Route

KHII BXK KAVQ

ID Type Via Altitude Latitude Longitude Leg Dist Tot Dist Heading (true) Name
O KHII APT - 0 ft / 0 m 34.57112˚ -114.35828˚ - 0 nm - LAKE HAVASU CITY
BXK VOR - 21,900 ft / 6,675 m 33.45344˚ -112.82458˚ 101 nm 101 nm 131° / 132° BUCKEYE VORTAC
O KAVQ APT - 0 ft / 0 m 32.40905˚ -111.21838˚ 102 nm 204 nm 127° / 128° MARANA RGNL

Altitude Profile

Advertisement - Login to hide

Weather


0- 5 10 15 20 25 30 35+ Temperature / ° C

Clouds and Precipitation
Forecast for 2017-12-18 06:00 UTC. Updated 7 minutes ago

Ground ~20,000 ft ~40,000 ft Winds

KHII

Details ICAO KHII (HII)
Name LAKE HAVASU CITY
Region United States
Timezone America/Phoenix (UTC-7.0)
Stats Elevation 781 ft / 238 m (AMSL)
Location 34.571123° -114.358277°
Runways 1
Magnetic Variation 11.176° E

METAR

KHII 180515Z AUTO 36010G14KT 10SM BKN060 BKN065 14/M08 A3005 RMK AO2

Decode

TAF

Not found

Departure Runways

ID Width Length Bearing (true) Bearing (mag) Surface Threshold Offset Overrun Length
14 100 ft / 30 m 8,012 ft / 2,442 m 149.75° 138.57° Asphalt 0 ft / 0 m 200 ft / 61 m
32 100 ft / 30 m 8,012 ft / 2,442 m 329.76° 318.58° Asphalt 0 ft / 0 m 200 ft / 61 m

KAVQ

Details ICAO KAVQ (AVW)
Name MARANA RGNL
Region United States
Timezone America/Phoenix (UTC-7.0)
Stats Elevation 2,031 ft / 619 m (AMSL)
Location 32.409049° -111.218379°
Runways 2
Magnetic Variation 9.916° E

METAR

KAVQ 180515Z AUTO 00000KT 10SM SCT050 BKN060 08/07 A3002 RMK AO2 T00820067

Decode

TAF

Not found

Destination Runways

ID Width Length Bearing (true) Bearing (mag) Surface Threshold Offset Overrun Length
03 75 ft / 23 m 3,895 ft / 1,187 m 45.33° 35.41° Asphalt 494 ft / 151 m 0 ft / 0 m
12 100 ft / 30 m 6,905 ft / 2,105 m 135.61° 125.69° Asphalt 0 ft / 0 m 0 ft / 0 m
21 75 ft / 23 m 3,895 ft / 1,187 m 225.34° 215.42° Asphalt 0 ft / 0 m 0 ft / 0 m
30 100 ft / 30 m 6,905 ft / 2,105 m 315.62° 305.70° Asphalt 0 ft / 0 m 0 ft / 0 m